createdAt,value
2023-05-22T00:01:10.085Z,15.43
2023-05-22T00:03:38.437Z,14.33
2023-05-22T00:06:09.405Z,13.90
2023-05-22T00:08:37.569Z,13.37
2023-05-22T00:11:05.469Z,14.30
2023-05-22T00:13:33.312Z,14.23
2023-05-22T00:16:01.094Z,14.33
2023-05-22T00:18:28.852Z,13.03
2023-05-22T00:23:45.490Z,11.33
2023-05-22T00:26:15.576Z,12.73
2023-05-22T00:28:43.395Z,14.80
2023-05-22T00:31:11.218Z,13.17
2023-05-22T00:33:38.905Z,12.97
2023-05-22T00:36:08.032Z,12.60
2023-05-22T00:38:37.056Z,11.93
2023-05-22T00:41:06.207Z,12.77
2023-05-22T00:43:34.384Z,12.33
2023-05-22T00:46:02.378Z,11.60
2023-05-22T00:48:30.366Z,12.53
2023-05-22T00:51:00.164Z,12.87
2023-05-22T00:53:30.053Z,11.17
2023-05-22T00:55:58.663Z,12.37
2023-05-22T00:58:26.930Z,12.13
2023-05-22T01:00:55.564Z,11.13
2023-05-22T01:03:25.566Z,12.23
2023-05-22T01:05:53.451Z,11.57
2023-05-22T01:08:21.477Z,13.03
2023-05-22T01:10:54.171Z,11.43
2023-05-22T01:13:29.514Z,11.70
2023-05-22T01:16:05.940Z,11.60
2023-05-22T01:18:42.074Z,11.43
2023-05-22T01:21:17.640Z,11.27
2023-05-22T01:24:24.906Z,12.43
2023-05-22T01:27:15.558Z,12.17
2023-05-22T01:29:47.975Z,10.87
2023-05-22T01:32:20.466Z,10.80
2023-05-22T01:34:51.836Z,11.30
2023-05-22T01:37:21.751Z,11.70
2023-05-22T01:39:50.912Z,11.03
2023-05-22T01:42:18.947Z,12.97
2023-05-22T01:44:48.719Z,10.47
2023-05-22T01:47:17.336Z,10.90
2023-05-22T01:49:46.496Z,12.57
2023-05-22T01:52:21.912Z,10.77
2023-05-22T01:54:54.976Z,10.80
2023-05-22T01:57:30.532Z,10.60
2023-05-22T02:00:06.677Z,10.87
2023-05-22T02:02:38.170Z,11.07
2023-05-22T02:05:10.952Z,10.43
2023-05-22T02:07:41.621Z,10.50
2023-05-22T02:10:11.128Z,11.50
2023-05-22T02:12:39.918Z,10.77
2023-05-22T02:17:54.154Z,10.47
2023-05-22T02:20:22.236Z,9.60
2023-05-22T02:22:50.056Z,11.20
2023-05-22T02:25:18.389Z,10.50
2023-05-22T02:27:48.909Z,10.53
2023-05-22T02:33:05.307Z,9.00
2023-05-22T02:35:33.263Z,9.77
2023-05-22T02:38:00.984Z,12.00
2023-05-22T02:40:28.711Z,10.47
2023-05-22T02:42:56.451Z,9.70
2023-05-22T02:45:24.387Z,10.43
2023-05-22T02:47:52.225Z,10.10
2023-05-22T02:50:20.030Z,10.50
2023-05-22T02:52:48.789Z,10.23
2023-05-22T02:55:16.593Z,10.43
2023-05-22T02:57:44.330Z,10.20
2023-05-22T03:00:13.695Z,11.17
2023-05-22T03:02:42.142Z,10.93
2023-05-22T03:05:10.694Z,13.10
2023-05-22T03:07:39.368Z,10.03
2023-05-22T03:10:08.509Z,12.43
2023-05-22T03:12:36.288Z,10.80
2023-05-22T03:15:05.287Z,12.67
2023-05-22T03:17:33.163Z,10.53
2023-05-22T03:20:00.943Z,10.10
2023-05-22T03:25:17.130Z,10.00
2023-05-22T03:27:45.131Z,10.20
2023-05-22T03:30:14.900Z,10.07
2023-05-22T03:32:42.824Z,11.23
2023-05-22T03:35:12.407Z,9.10
2023-05-22T03:37:40.194Z,10.03
2023-05-22T03:40:11.068Z,10.20
2023-05-22T03:42:38.787Z,8.97
2023-05-22T03:45:09.143Z,8.97
2023-05-22T03:47:36.918Z,9.97
2023-05-22T03:50:05.640Z,10.53
2023-05-22T03:52:33.360Z,11.43
2023-05-22T03:55:01.249Z,10.60
2023-05-22T03:57:28.992Z,10.70
2023-05-22T03:59:56.715Z,10.97
2023-05-22T04:02:25.707Z,11.23
2023-05-22T04:04:53.700Z,11.00
2023-05-22T04:07:21.608Z,11.00
2023-05-22T04:09:49.495Z,9.87
2023-05-22T04:12:17.222Z,10.10
2023-05-22T04:14:45.188Z,11.33
2023-05-22T04:17:12.982Z,12.47
2023-05-22T04:19:40.700Z,10.73
2023-05-22T04:22:08.516Z,10.30
2023-05-22T04:24:39.130Z,10.27
2023-05-22T04:27:07.259Z,13.47
2023-05-22T04:29:36.564Z,13.57
2023-05-22T04:32:09.928Z,15.10
2023-05-22T04:34:37.747Z,12.80
2023-05-22T04:37:06.244Z,13.40
2023-05-22T04:39:34.146Z,12.07
2023-05-22T04:42:05.153Z,10.63
2023-05-22T04:47:21.687Z,10.97
2023-05-22T04:49:50.880Z,11.47
2023-05-22T04:52:18.624Z,10.80
2023-05-22T04:54:46.438Z,12.20
2023-05-22T04:57:14.359Z,10.87
2023-05-22T04:59:42.111Z,10.57
2023-05-22T05:02:10.236Z,10.87
2023-05-22T05:04:38.292Z,11.73
2023-05-22T05:07:06.340Z,10.80
2023-05-22T05:09:34.106Z,11.27
2023-05-22T05:12:02.149Z,13.83
2023-05-22T05:14:31.655Z,12.93
2023-05-22T05:16:59.495Z,11.40
2023-05-22T05:19:27.633Z,12.30
2023-05-22T05:21:55.536Z,12.57
2023-05-22T05:24:23.261Z,11.77
2023-05-22T05:26:51.794Z,11.40
2023-05-22T05:29:20.650Z,12.47
2023-05-22T05:31:48.725Z,12.67
2023-05-22T05:34:16.590Z,12.83
2023-05-22T05:36:44.919Z,11.13
2023-05-22T05:39:12.958Z,12.10
2023-05-22T05:41:40.869Z,11.93
2023-05-22T05:44:08.684Z,11.77
2023-05-22T05:46:36.787Z,14.20
2023-05-22T05:49:09.284Z,11.27
2023-05-22T05:51:37.230Z,12.37
2023-05-22T05:54:05.644Z,12.97
2023-05-22T05:56:33.703Z,12.63
2023-05-22T05:59:01.547Z,11.37
2023-05-22T06:01:32.256Z,12.60
2023-05-22T06:04:02.482Z,13.53
2023-05-22T06:06:35.072Z,12.43
2023-05-22T06:09:04.914Z,11.87
2023-05-22T06:11:32.980Z,13.80
2023-05-22T06:14:02.489Z,12.37
2023-05-22T06:16:30.581Z,13.13
2023-05-22T06:18:59.144Z,12.57
2023-05-22T06:21:27.014Z,14.10
2023-05-22T06:23:54.990Z,12.43
2023-05-22T06:26:22.868Z,14.03
2023-05-22T06:28:51.193Z,19.73
2023-05-22T06:31:19.171Z,23.60
2023-05-22T06:33:47.142Z,27.17
2023-05-22T06:36:15.474Z,32.83
2023-05-22T06:38:43.426Z,18.47
2023-05-22T06:41:11.768Z,21.50
2023-05-22T06:43:39.520Z,19.87
2023-05-22T06:46:07.482Z,20.87
2023-05-22T06:48:35.654Z,19.57
2023-05-22T06:51:03.988Z,16.10
2023-05-22T06:53:31.776Z,17.87
2023-05-22T06:58:46.501Z,14.13
2023-05-22T07:01:14.448Z,17.63
2023-05-22T07:03:42.262Z,15.33
2023-05-22T07:06:11.582Z,16.73
2023-05-22T07:11:28.548Z,19.70
2023-05-22T07:13:56.297Z,17.33
2023-05-22T07:16:25.063Z,17.43
2023-05-22T07:18:53.011Z,18.47
2023-05-22T07:21:23.070Z,18.17
2023-05-22T07:23:51.425Z,14.37
2023-05-22T07:26:19.277Z,17.30
2023-05-22T07:28:47.726Z,16.13
2023-05-22T07:31:15.724Z,16.67
2023-05-22T07:33:43.890Z,19.60
2023-05-22T07:36:11.912Z,17.30
2023-05-22T07:38:40.248Z,17.37
2023-05-22T07:41:08.273Z,16.90
2023-05-22T07:43:36.100Z,16.70
2023-05-22T07:46:05.420Z,18.67
2023-05-22T07:48:33.205Z,17.53
2023-05-22T07:51:03.101Z,18.43
2023-05-22T07:53:31.093Z,15.77
2023-05-22T07:55:59.229Z,18.77
2023-05-22T08:01:16.523Z,16.73
2023-05-22T08:03:44.656Z,14.97
2023-05-22T08:06:15.282Z,16.27
2023-05-22T08:08:43.696Z,16.20
2023-05-22T08:11:12.069Z,15.13
2023-05-22T08:13:40.194Z,17.03
2023-05-22T08:16:09.268Z,15.83
2023-05-22T08:18:37.409Z,16.60
2023-05-22T08:21:06.117Z,15.43
2023-05-22T08:23:35.605Z,17.00
2023-05-22T08:26:03.759Z,16.73
2023-05-22T08:28:31.634Z,16.50
2023-05-22T08:30:59.456Z,15.43
2023-05-22T08:33:27.568Z,17.13
2023-05-22T08:35:55.413Z,21.60
2023-05-22T08:38:23.264Z,16.83
2023-05-22T08:40:53.832Z,14.50
2023-05-22T08:43:22.021Z,17.50
2023-05-22T08:45:59.773Z,14.97
2023-05-22T08:48:31.171Z,16.63
2023-05-22T08:53:56.173Z,16.67
2023-05-22T08:56:27.061Z,16.33
2023-05-22T08:58:59.561Z,16.83
2023-05-22T09:01:29.591Z,18.60
2023-05-22T09:04:02.138Z,18.67
2023-05-22T09:06:31.250Z,16.93
2023-05-22T09:09:00.788Z,18.10
2023-05-22T09:11:28.643Z,20.00
2023-05-22T09:14:08.060Z,18.10
2023-05-22T09:16:44.610Z,18.13
2023-05-22T09:19:13.545Z,16.87
2023-05-22T09:21:41.665Z,19.13
2023-05-22T09:24:10.313Z,15.47
2023-05-22T09:26:39.585Z,17.40
2023-05-22T09:29:08.142Z,19.17
2023-05-22T09:31:42.366Z,16.70
2023-05-22T09:34:13.336Z,21.27
2023-05-22T09:36:41.435Z,18.70
2023-05-22T09:39:09.360Z,18.17
2023-05-22T09:41:38.824Z,18.40
2023-05-22T09:44:16.374Z,18.20
2023-05-22T09:46:46.445Z,20.10
2023-05-22T09:49:16.501Z,19.20
2023-05-22T09:51:47.375Z,19.17
2023-05-22T09:54:16.732Z,20.90
2023-05-22T09:56:48.211Z,20.53
2023-05-22T09:59:22.687Z,18.40
2023-05-22T10:01:51.495Z,19.00
2023-05-22T10:04:21.740Z,20.00
2023-05-22T10:06:52.884Z,20.70
2023-05-22T10:09:23.964Z,20.07
2023-05-22T10:11:56.446Z,20.77
2023-05-22T10:14:25.497Z,27.20
2023-05-22T10:16:56.174Z,21.33
2023-05-22T10:19:27.396Z,22.20
2023-05-22T10:21:58.271Z,25.80
2023-05-22T10:24:26.482Z,30.53
2023-05-22T10:26:55.297Z,28.47
2023-05-22T10:29:29.465Z,24.97
2023-05-22T10:32:06.402Z,21.20
2023-05-22T10:34:42.461Z,25.23
2023-05-22T10:37:27.606Z,25.83
2023-05-22T10:40:04.049Z,24.00
2023-05-22T10:42:32.352Z,23.47
2023-05-22T10:45:01.328Z,23.63
2023-05-22T10:47:29.159Z,23.20
2023-05-22T10:53:17.626Z,24.10
2023-05-22T10:55:48.409Z,26.63
2023-05-22T10:58:17.073Z,27.87
2023-05-22T11:00:45.312Z,26.20
2023-05-22T11:03:18.406Z,27.73
2023-05-22T11:05:53.116Z,23.53
2023-05-22T11:08:39.107Z,23.73
2023-05-22T11:11:16.281Z,23.87
2023-05-22T11:13:51.120Z,24.10
2023-05-22T11:16:19.813Z,22.50
2023-05-22T11:18:47.828Z,22.60
2023-05-22T11:21:16.155Z,22.30
2023-05-22T11:23:45.422Z,19.70
2023-05-22T11:26:24.786Z,21.70
2023-05-22T11:28:53.707Z,22.07
2023-05-22T11:31:25.718Z,21.07
2023-05-22T11:33:54.099Z,19.03
2023-05-22T11:36:23.190Z,18.47
2023-05-22T11:38:51.112Z,18.43
2023-05-22T11:41:19.100Z,19.90
2023-05-22T11:43:46.866Z,18.53
2023-05-22T11:46:15.176Z,18.97
2023-05-22T11:48:43.495Z,23.13
2023-05-22T11:53:58.032Z,17.83
2023-05-22T11:56:26.430Z,16.90
2023-05-22T11:58:54.239Z,16.97
2023-05-22T12:01:22.083Z,17.77
2023-05-22T12:03:49.976Z,17.53
2023-05-22T12:06:18.770Z,18.97
2023-05-22T12:08:47.043Z,16.60
2023-05-22T12:14:04.518Z,18.17
2023-05-22T12:16:36.254Z,22.83
2023-05-22T12:19:07.757Z,18.67
2023-05-22T12:21:36.219Z,18.00
2023-05-22T12:24:05.476Z,19.10
2023-05-22T12:26:34.043Z,17.23
2023-05-22T12:29:02.216Z,17.30
2023-05-22T12:31:35.747Z,17.47
2023-05-22T12:34:06.590Z,19.27
2023-05-22T12:36:37.603Z,18.03
2023-05-22T12:39:09.582Z,19.50
2023-05-22T12:41:37.418Z,18.90
2023-05-22T12:44:05.382Z,17.13
2023-05-22T12:46:34.029Z,17.23
2023-05-22T12:49:02.815Z,16.83
2023-05-22T12:51:31.930Z,15.43
2023-05-22T12:54:00.840Z,15.17
2023-05-22T12:56:29.184Z,15.27
2023-05-22T12:58:57.818Z,15.37
2023-05-22T13:01:26.174Z,14.53
2023-05-22T13:03:54.232Z,15.70
2023-05-22T13:06:22.207Z,16.37
2023-05-22T13:08:50.745Z,16.90
2023-05-22T13:11:19.423Z,15.03
2023-05-22T13:13:47.212Z,14.67
2023-05-22T13:16:15.133Z,15.27
2023-05-22T13:18:43.025Z,15.47
2023-05-22T13:21:11.998Z,15.00
2023-05-22T13:23:39.837Z,14.30
2023-05-22T13:26:07.915Z,15.40
2023-05-22T13:28:35.698Z,15.07
2023-05-22T13:31:03.613Z,15.47
2023-05-22T13:33:31.454Z,15.97
2023-05-22T13:35:59.453Z,15.10
2023-05-22T13:41:14.774Z,16.47
2023-05-22T13:43:42.542Z,15.97
2023-05-22T13:46:10.315Z,16.97
2023-05-22T13:48:38.188Z,16.53
2023-05-22T13:51:06.447Z,15.73
2023-05-22T13:53:34.724Z,15.73
2023-05-22T13:56:02.486Z,15.37
2023-05-22T13:58:30.220Z,16.70
2023-05-22T14:00:58.027Z,15.63
2023-05-22T14:03:26.047Z,16.10
2023-05-22T14:05:54.013Z,16.27
2023-05-22T14:08:21.845Z,17.43
2023-05-22T14:10:50.167Z,15.73
2023-05-22T14:16:05.598Z,15.77
2023-05-22T14:18:33.404Z,15.40
2023-05-22T14:21:02.695Z,15.33
2023-05-22T14:23:32.435Z,16.03
2023-05-22T14:26:00.310Z,15.73
2023-05-22T14:28:28.331Z,15.63
2023-05-22T14:30:56.958Z,15.90
2023-05-22T14:33:24.872Z,17.57
2023-05-22T14:35:53.446Z,17.77
2023-05-22T14:38:21.226Z,16.97
2023-05-22T14:40:50.637Z,15.83
2023-05-22T14:43:18.432Z,17.20
2023-05-22T14:45:46.229Z,16.50
2023-05-22T14:48:14.397Z,16.93
2023-05-22T14:50:42.251Z,17.97
2023-05-22T14:53:10.891Z,17.07
2023-05-22T14:55:38.874Z,18.40
2023-05-22T14:58:06.786Z,17.60
2023-05-22T15:00:34.889Z,17.73
2023-05-22T15:03:03.401Z,17.73
2023-05-22T15:05:31.471Z,17.33
2023-05-22T15:07:59.311Z,19.13
2023-05-22T15:10:27.137Z,17.07
2023-05-22T15:12:55.224Z,17.30
2023-05-22T15:15:23.380Z,17.53
2023-05-22T15:17:51.179Z,16.97
2023-05-22T15:20:19.289Z,16.77
2023-05-22T15:22:47.357Z,16.50
2023-05-22T15:25:15.716Z,14.40
2023-05-22T15:27:43.854Z,14.50
2023-05-22T15:30:12.675Z,14.60
2023-05-22T15:32:40.628Z,15.87
2023-05-22T15:35:10.475Z,17.43
2023-05-22T15:37:38.544Z,16.53
2023-05-22T15:40:10.460Z,16.80
2023-05-22T15:42:38.506Z,16.63
2023-05-22T15:45:08.748Z,17.77
2023-05-22T15:47:36.592Z,17.77
2023-05-22T15:50:06.949Z,15.03
2023-05-22T15:52:34.859Z,15.40
2023-05-22T15:55:02.695Z,15.10
2023-05-22T15:57:30.532Z,17.57
2023-05-22T15:59:58.410Z,16.77
2023-05-22T16:02:26.247Z,15.40
2023-05-22T16:04:54.437Z,15.87
2023-05-22T16:07:22.320Z,13.17
2023-05-22T16:09:50.181Z,15.27
2023-05-22T16:12:18.772Z,14.53
2023-05-22T16:14:46.715Z,16.20
2023-05-22T16:17:14.733Z,15.73
2023-05-22T16:19:42.636Z,15.23
2023-05-22T16:22:11.214Z,15.33
2023-05-22T16:24:39.132Z,16.57
2023-05-22T16:27:07.269Z,16.40
2023-05-22T16:29:35.316Z,15.67
2023-05-22T16:32:03.907Z,16.30
2023-05-22T16:34:33.327Z,16.03
2023-05-22T16:37:01.838Z,13.83
2023-05-22T16:39:30.083Z,15.10
2023-05-22T16:41:58.031Z,14.20
2023-05-22T16:44:25.919Z,14.37
2023-05-22T16:46:53.954Z,16.83
2023-05-22T16:49:22.039Z,18.13
2023-05-22T16:51:49.812Z,15.03
2023-05-22T16:54:17.784Z,18.13
2023-05-22T16:56:45.863Z,15.53
2023-05-22T16:59:13.817Z,13.67
2023-05-22T17:01:42.973Z,11.17
2023-05-22T17:04:14.041Z,10.40
2023-05-22T17:06:42.753Z,10.60
2023-05-22T17:09:10.750Z,9.93
2023-05-22T17:11:38.805Z,10.67
2023-05-22T17:14:06.915Z,11.10
2023-05-22T17:16:34.932Z,9.87
2023-05-22T17:19:03.261Z,9.70
2023-05-22T17:21:31.292Z,12.83
2023-05-22T17:23:59.144Z,11.17
2023-05-22T17:26:27.173Z,11.27
2023-05-22T17:28:55.058Z,12.23
2023-05-22T17:31:22.947Z,11.67
2023-05-22T17:33:50.770Z,16.17
2023-05-22T17:36:18.686Z,16.43
2023-05-22T17:38:47.070Z,15.70
2023-05-22T17:41:17.799Z,16.23
2023-05-22T17:43:46.079Z,17.00
2023-05-22T17:46:14.749Z,17.77
2023-05-22T17:48:42.640Z,17.77
2023-05-22T17:53:59.535Z,19.37
2023-05-22T17:56:27.731Z,21.97
2023-05-22T17:58:55.927Z,20.90
2023-05-22T18:01:24.036Z,19.77
2023-05-22T18:03:52.755Z,18.33
2023-05-22T18:06:23.976Z,23.87
2023-05-22T18:08:52.740Z,20.63
2023-05-22T18:11:21.143Z,18.73
2023-05-22T18:13:50.184Z,19.87
2023-05-22T18:16:19.151Z,18.87
2023-05-22T18:18:47.442Z,22.20
2023-05-22T18:21:15.588Z,22.10
2023-05-22T18:23:43.595Z,23.07
2023-05-22T18:26:11.549Z,18.83
2023-05-22T18:28:40.983Z,27.50
2023-05-22T18:31:09.059Z,21.43
2023-05-22T18:33:38.678Z,20.10
2023-05-22T18:36:07.468Z,21.37
2023-05-22T18:38:35.873Z,25.43
2023-05-22T18:41:04.383Z,12.30
2023-05-22T18:43:32.516Z,12.73
2023-05-22T18:46:00.793Z,10.53
2023-05-22T18:48:30.277Z,10.33
2023-05-22T18:50:58.386Z,12.30
2023-05-22T18:53:26.685Z,13.53
2023-05-22T18:55:54.880Z,9.00
2023-05-22T18:58:22.924Z,9.93
2023-05-22T19:00:51.476Z,9.47
2023-05-22T19:03:19.391Z,9.37
2023-05-22T19:05:47.641Z,9.00
2023-05-22T19:08:15.896Z,7.90
2023-05-22T19:10:44.049Z,9.33
2023-05-22T19:13:11.914Z,7.73
2023-05-22T19:15:40.060Z,7.60
2023-05-22T19:18:08.153Z,7.73
2023-05-22T19:20:36.286Z,9.13
2023-05-22T19:23:05.959Z,8.03
2023-05-22T19:25:33.882Z,8.93
2023-05-22T19:28:02.124Z,8.57
2023-05-22T19:30:29.983Z,7.80
2023-05-22T19:32:58.007Z,8.93
2023-05-22T19:35:26.291Z,8.33
2023-05-22T19:37:54.545Z,8.27
2023-05-22T19:40:22.739Z,8.30
2023-05-22T19:42:51.297Z,6.97
2023-05-22T19:45:19.369Z,7.30
2023-05-22T19:47:47.561Z,7.03
2023-05-22T19:50:16.771Z,6.67
2023-05-22T19:52:44.972Z,7.63
2023-05-22T19:55:13.178Z,7.37
2023-05-22T19:57:43.671Z,8.73
2023-05-22T20:00:13.920Z,6.70
2023-05-22T20:02:42.136Z,6.43
2023-05-22T20:05:12.269Z,7.50
2023-05-22T20:07:41.421Z,6.23
2023-05-22T20:10:11.362Z,8.40
2023-05-22T20:12:39.615Z,9.13
2023-05-22T20:15:14.038Z,8.87
2023-05-22T20:17:46.810Z,6.40
2023-05-22T20:20:15.019Z,7.43
2023-05-22T20:22:42.977Z,8.40
2023-05-22T20:25:11.140Z,7.07
2023-05-22T20:27:39.365Z,6.93
2023-05-22T20:32:54.686Z,5.60
2023-05-22T20:38:13.763Z,6.77
2023-05-22T20:40:45.800Z,7.00
2023-05-22T20:43:13.807Z,7.40
2023-05-22T20:45:44.940Z,6.47
2023-05-22T20:48:13.273Z,5.80
2023-05-22T20:53:30.251Z,7.37
2023-05-22T20:55:58.337Z,6.13
2023-05-22T20:58:26.741Z,8.77
2023-05-22T21:00:55.495Z,6.73
2023-05-22T21:03:25.699Z,5.70
2023-05-22T21:05:54.912Z,5.20
2023-05-22T21:08:23.264Z,6.80
2023-05-22T21:10:51.570Z,5.90
2023-05-22T21:13:19.758Z,4.97
2023-05-22T21:15:47.730Z,6.10
2023-05-22T21:18:15.692Z,5.53
2023-05-22T21:20:43.785Z,9.57
2023-05-22T21:23:12.028Z,5.27
2023-05-22T21:25:40.036Z,6.03
2023-05-22T21:28:08.206Z,5.77
2023-05-22T21:30:36.315Z,6.97
2023-05-22T21:33:04.624Z,7.03
2023-05-22T21:35:32.536Z,7.07
2023-05-22T21:40:48.254Z,8.47
2023-05-22T21:43:16.155Z,11.57
2023-05-22T21:45:44.217Z,7.43
2023-05-22T21:48:12.287Z,8.83
2023-05-22T21:50:40.834Z,8.00
2023-05-22T21:55:56.428Z,7.10
2023-05-22T21:58:24.376Z,8.73
2023-05-22T22:00:52.239Z,7.47
2023-05-22T22:03:20.239Z,6.60
2023-05-22T22:05:48.963Z,6.90
2023-05-22T22:08:17.066Z,9.90
2023-05-22T22:10:45.524Z,10.17
2023-05-22T22:15:59.864Z,6.90
2023-05-22T22:18:27.794Z,8.60
2023-05-22T22:20:55.638Z,6.33
2023-05-22T22:23:23.509Z,6.90
2023-05-22T22:25:51.674Z,8.00
2023-05-22T22:31:08.664Z,6.90
2023-05-22T22:33:36.890Z,7.87
2023-05-22T22:36:05.726Z,6.33
2023-05-22T22:38:34.620Z,6.03
2023-05-22T22:41:04.085Z,8.47
2023-05-22T22:43:32.201Z,7.73
2023-05-22T22:46:00.264Z,8.77
2023-05-22T22:48:28.523Z,8.23
2023-05-22T22:50:57.501Z,8.17
2023-05-22T22:53:25.424Z,8.00
2023-05-22T22:58:42.943Z,10.17
2023-05-22T23:01:10.781Z,7.83
2023-05-22T23:03:39.011Z,7.90
2023-05-22T23:06:08.194Z,10.30
2023-05-22T23:08:36.038Z,10.43
2023-05-22T23:11:04.277Z,10.63
2023-05-22T23:13:32.167Z,7.97
2023-05-22T23:16:00.205Z,9.43
2023-05-22T23:18:28.077Z,9.00
2023-05-22T23:20:56.008Z,8.33
2023-05-22T23:23:23.817Z,9.87
2023-05-22T23:25:51.402Z,9.27
2023-05-22T23:28:19.678Z,8.53
2023-05-22T23:30:47.641Z,9.10
2023-05-22T23:33:15.645Z,12.50
2023-05-22T23:35:43.549Z,11.53
2023-05-22T23:38:11.455Z,10.23
2023-05-22T23:40:39.439Z,10.93
2023-05-22T23:43:07.283Z,9.50
2023-05-22T23:45:35.543Z,9.23
2023-05-22T23:48:03.555Z,8.20
2023-05-22T23:50:33.471Z,9.23
2023-05-22T23:53:01.229Z,9.30
2023-05-22T23:55:29.236Z,6.70
2023-05-22T23:57:57.117Z,6.63
